sensor_id;sensor_type;location;lat;lon;timestamp;pressure;altitude;pressure_sealevel;temperature;humidity
74065;BME280;62421;51.412;5.432;2023-03-23T00:02:14;100162.78;;;10.55;100.00
74065;BME280;62421;51.412;5.432;2023-03-23T00:04:39;100159.13;;;10.56;100.00
74065;BME280;62421;51.412;5.432;2023-03-23T00:07:07;100140.19;;;10.58;100.00
74065;BME280;62421;51.412;5.432;2023-03-23T00:09:33;100126.78;;;10.58;100.00
74065;BME280;62421;51.412;5.432;2023-03-23T00:12:00;100131.28;;;10.57;100.00
74065;BME280;62421;51.412;5.432;2023-03-23T00:14:32;100156.28;;;10.58;100.00
74065;BME280;62421;51.412;5.432;2023-03-23T00:17:09;100158.88;;;10.59;100.00
74065;BME280;62421;51.412;5.432;2023-03-23T00:19:37;100143.50;;;10.61;100.00
74065;BME280;62421;51.412;5.432;2023-03-23T00:22:15;100125.44;;;10.63;100.00
74065;BME280;62421;51.412;5.432;2023-03-23T00:24:42;100127.25;;;10.63;100.00
74065;BME280;62421;51.412;5.432;2023-03-23T00:27:08;100138.13;;;10.61;100.00
74065;BME280;62421;51.412;5.432;2023-03-23T00:29:34;100133.59;;;10.62;100.00
74065;BME280;62421;51.412;5.432;2023-03-23T00:32:00;100139.97;;;10.61;100.00
74065;BME280;62421;51.412;5.432;2023-03-23T00:34:27;100144.47;;;10.60;100.00
74065;BME280;62421;51.412;5.432;2023-03-23T00:36:57;100144.34;;;10.62;100.00
74065;BME280;62421;51.412;5.432;2023-03-23T00:39:24;100138.00;;;10.63;100.00
74065;BME280;62421;51.412;5.432;2023-03-23T00:41:50;100147.03;;;10.62;100.00
74065;BME280;62421;51.412;5.432;2023-03-23T00:44:16;100145.06;;;10.64;100.00
74065;BME280;62421;51.412;5.432;2023-03-23T00:46:46;100140.44;;;10.66;100.00
74065;BME280;62421;51.412;5.432;2023-03-23T00:49:15;100132.25;;;10.68;100.00
74065;BME280;62421;51.412;5.432;2023-03-23T00:51:41;100136.41;;;10.72;100.00
74065;BME280;62421;51.412;5.432;2023-03-23T00:54:07;100136.13;;;10.75;100.00
74065;BME280;62421;51.412;5.432;2023-03-23T00:56:33;100131.50;;;10.77;100.00
74065;BME280;62421;51.412;5.432;2023-03-23T00:58:59;100116.94;;;10.79;100.00
74065;BME280;62421;51.412;5.432;2023-03-23T01:01:24;100140.03;;;10.82;100.00
74065;BME280;62421;51.412;5.432;2023-03-23T01:03:50;100129.16;;;10.83;100.00
74065;BME280;62421;51.412;5.432;2023-03-23T01:06:15;100132.69;;;10.84;100.00
74065;BME280;62421;51.412;5.432;2023-03-23T01:08:42;100130.88;;;10.84;100.00
74065;BME280;62421;51.412;5.432;2023-03-23T01:11:19;100134.53;;;10.83;100.00
74065;BME280;62421;51.412;5.432;2023-03-23T01:13:45;100121.09;;;10.83;100.00
74065;BME280;62421;51.412;5.432;2023-03-23T01:16:10;100100.59;;;10.82;100.00
74065;BME280;62421;51.412;5.432;2023-03-23T01:18:37;100091.94;;;10.79;100.00
74065;BME280;62421;51.412;5.432;2023-03-23T01:21:07;100091.22;;;10.77;100.00
74065;BME280;62421;51.412;5.432;2023-03-23T01:23:34;100093.06;;;10.76;100.00
74065;BME280;62421;51.412;5.432;2023-03-23T01:26:20;100079.75;;;10.75;100.00
74065;BME280;62421;51.412;5.432;2023-03-23T01:28:46;100088.91;;;10.72;100.00
74065;BME280;62421;51.412;5.432;2023-03-23T01:31:15;100079.84;;;10.73;100.00
74065;BME280;62421;51.412;5.432;2023-03-23T01:33:42;100071.97;;;10.72;100.00
74065;BME280;62421;51.412;5.432;2023-03-23T01:36:11;100088.19;;;10.70;100.00
74065;BME280;62421;51.412;5.432;2023-03-23T01:38:37;100085.63;;;10.69;100.00
74065;BME280;62421;51.412;5.432;2023-03-23T01:41:03;100081.25;;;10.68;100.00
74065;BME280;62421;51.412;5.432;2023-03-23T01:43:30;100088.56;;;10.65;100.00
74065;BME280;62421;51.412;5.432;2023-03-23T01:45:55;100091.25;;;10.65;100.00
74065;BME280;62421;51.412;5.432;2023-03-23T01:48:30;100094.56;;;10.69;100.00
74065;BME280;62421;51.412;5.432;2023-03-23T01:51:17;100109.78;;;10.69;100.00
74065;BME280;62421;51.412;5.432;2023-03-23T01:53:56;100096.13;;;10.72;100.00
74065;BME280;62421;51.412;5.432;2023-03-23T01:56:25;100087.91;;;10.73;100.00
74065;BME280;62421;51.412;5.432;2023-03-23T01:58:56;100086.84;;;10.76;100.00
74065;BME280;62421;51.412;5.432;2023-03-23T02:01:22;100072.41;;;10.77;100.00
74065;BME280;62421;51.412;5.432;2023-03-23T02:03:51;100078.50;;;10.79;100.00
74065;BME280;62421;51.412;5.432;2023-03-23T02:06:18;100068.63;;;10.79;100.00
74065;BME280;62421;51.412;5.432;2023-03-23T02:08:44;100056.78;;;10.82;100.00
74065;BME280;62421;51.412;5.432;2023-03-23T02:11:18;100048.00;;;10.80;100.00
74065;BME280;62421;51.412;5.432;2023-03-23T02:13:44;100053.94;;;10.83;100.00
74065;BME280;62421;51.412;5.432;2023-03-23T02:16:17;100054.09;;;10.82;100.00
74065;BME280;62421;51.412;5.432;2023-03-23T02:18:50;100050.69;;;10.80;100.00
74065;BME280;62421;51.412;5.432;2023-03-23T02:21:44;100048.97;;;10.79;100.00
74065;BME280;62421;51.412;5.432;2023-03-23T02:27:20;100062.72;;;10.85;100.00
74065;BME280;62421;51.412;5.432;2023-03-23T02:35:54;100048.41;;;10.96;100.00
74065;BME280;62421;51.412;5.432;2023-03-23T02:38:27;100043.88;;;10.97;100.00
74065;BME280;62421;51.412;5.432;2023-03-23T02:40:56;100027.75;;;10.97;100.00
74065;BME280;62421;51.412;5.432;2023-03-23T02:43:27;100034.84;;;10.98;100.00
74065;BME280;62421;51.412;5.432;2023-03-23T02:45:54;100030.09;;;11.01;100.00
74065;BME280;62421;51.412;5.432;2023-03-23T02:48:24;100033.72;;;11.00;100.00
74065;BME280;62421;51.412;5.432;2023-03-23T02:50:52;100042.53;;;11.02;100.00
74065;BME280;62421;51.412;5.432;2023-03-23T02:53:21;100050.31;;;11.05;100.00
74065;BME280;62421;51.412;5.432;2023-03-23T02:55:48;100046.66;;;11.06;100.00
74065;BME280;62421;51.412;5.432;2023-03-23T02:58:18;100049.22;;;11.08;100.00
74065;BME280;62421;51.412;5.432;2023-03-23T03:00:43;100037.47;;;11.09;100.00
74065;BME280;62421;51.412;5.432;2023-03-23T03:03:15;100032.94;;;11.10;100.00
74065;BME280;62421;51.412;5.432;2023-03-23T03:11:23;100045.66;;;11.07;100.00
74065;BME280;62421;51.412;5.432;2023-03-23T03:14:31;100045.66;;;11.07;100.00
74065;BME280;62421;51.412;5.432;2023-03-23T03:17:25;100049.34;;;11.06;100.00
74065;BME280;62421;51.412;5.432;2023-03-23T03:19:51;100036.88;;;11.05;100.00
74065;BME280;62421;51.412;5.432;2023-03-23T03:22:19;100037.88;;;11.04;100.00
74065;BME280;62421;51.412;5.432;2023-03-23T03:24:47;100038.00;;;11.03;100.00
74065;BME280;62421;51.412;5.432;2023-03-23T03:27:16;100042.53;;;11.02;100.00
74065;BME280;62421;51.412;5.432;2023-03-23T03:29:45;100037.88;;;11.04;100.00
74065;BME280;62421;51.412;5.432;2023-03-23T03:32:17;100043.50;;;11.01;100.00
74065;BME280;62421;51.412;5.432;2023-03-23T03:34:45;100033.72;;;11.00;100.00
74065;BME280;62421;51.412;5.432;2023-03-23T03:37:12;100046.31;;;11.00;100.00
74065;BME280;62421;51.412;5.432;2023-03-23T03:39:38;100043.63;;;11.00;100.00
74065;BME280;62421;51.412;5.432;2023-03-23T03:42:06;100053.53;;;10.99;100.00
74065;BME280;62421;51.412;5.432;2023-03-23T03:44:33;100059.75;;;11.00;100.00
74065;BME280;62421;51.412;5.432;2023-03-23T03:46:58;100059.63;;;11.01;100.00
74065;BME280;62421;51.412;5.432;2023-03-23T03:49:24;100045.81;;;11.06;100.00
74065;BME280;62421;51.412;5.432;2023-03-23T03:51:50;100048.63;;;11.04;100.00
74065;BME280;62421;51.412;5.432;2023-03-23T03:54:16;100054.97;;;11.03;100.00
74065;BME280;62421;51.412;5.432;2023-03-23T03:56:41;100054.09;;;11.03;100.00
74065;BME280;62421;51.412;5.432;2023-03-23T03:59:08;100062.88;;;11.05;99.88
74065;BME280;62421;51.412;5.432;2023-03-23T04:01:35;100060.09;;;11.06;98.98
74065;BME280;62421;51.412;5.432;2023-03-23T04:04:00;100064.94;;;11.13;98.16
74065;BME280;62421;51.412;5.432;2023-03-23T04:06:26;100057.00;;;11.11;98.14
74065;BME280;62421;51.412;5.432;2023-03-23T04:08:57;100053.59;;;11.09;98.23
74065;BME280;62421;51.412;5.432;2023-03-23T04:11:24;100054.72;;;11.06;97.85
74065;BME280;62421;51.412;5.432;2023-03-23T04:13:50;100050.06;;;11.09;96.87
74065;BME280;62421;51.412;5.432;2023-03-23T04:16:16;100056.16;;;11.11;96.94
74065;BME280;62421;51.412;5.432;2023-03-23T04:18:42;100058.00;;;11.10;97.25
74065;BME280;62421;51.412;5.432;2023-03-23T04:21:08;100053.59;;;11.09;96.46
74065;BME280;62421;51.412;5.432;2023-03-23T04:23:34;100053.47;;;11.11;96.59
74065;BME280;62421;51.412;5.432;2023-03-23T04:26:01;100066.78;;;11.12;96.18
74065;BME280;62421;51.412;5.432;2023-03-23T04:28:28;100070.75;;;11.18;96.01
74065;BME280;62421;51.412;5.432;2023-03-23T04:30:55;100067.50;;;11.14;96.11
74065;BME280;62421;51.412;5.432;2023-03-23T04:33:25;100072.28;;;11.11;95.73
74065;BME280;62421;51.412;5.432;2023-03-23T04:35:55;100091.81;;;11.13;95.49
74065;BME280;62421;51.412;5.432;2023-03-23T04:38:22;100078.25;;;11.14;94.33
74065;BME280;62421;51.412;5.432;2023-03-23T04:40:51;100089.47;;;11.19;94.32
74065;BME280;62421;51.412;5.432;2023-03-23T04:43:22;100088.63;;;11.19;95.48
74065;BME280;62421;51.412;5.432;2023-03-23T04:45:53;100091.16;;;11.20;95.20
74065;BME280;62421;51.412;5.432;2023-03-23T04:48:22;100080.66;;;11.17;95.10
74065;BME280;62421;51.412;5.432;2023-03-23T04:50:48;100091.41;;;11.17;95.08
74065;BME280;62421;51.412;5.432;2023-03-23T04:53:15;100094.94;;;11.18;95.12
74065;BME280;62421;51.412;5.432;2023-03-23T04:55:43;100082.50;;;11.17;94.58
74065;BME280;62421;51.412;5.432;2023-03-23T04:58:09;100087.16;;;11.15;95.22
74065;BME280;62421;51.412;5.432;2023-03-23T05:00:35;100087.41;;;11.12;95.98
74065;BME280;62421;51.412;5.432;2023-03-23T05:03:01;100081.47;;;11.08;96.31
74065;BME280;62421;51.412;5.432;2023-03-23T05:05:27;100083.16;;;11.09;95.53
74065;BME280;62421;51.412;5.432;2023-03-23T05:07:56;100094.50;;;11.13;95.20
74065;BME280;62421;51.412;5.432;2023-03-23T05:10:21;100092.94;;;11.10;95.41
74065;BME280;62421;51.412;5.432;2023-03-23T05:12:46;100094.88;;;11.08;96.04
74065;BME280;62421;51.412;5.432;2023-03-23T05:15:13;100094.00;;;11.07;96.87
74065;BME280;62421;51.412;5.432;2023-03-23T05:17:39;100103.06;;;11.06;99.07
74065;BME280;62421;51.412;5.432;2023-03-23T05:20:13;100102.47;;;11.03;100.00
74065;BME280;62421;51.412;5.432;2023-03-23T05:22:40;100097.59;;;10.97;100.00
74065;BME280;62421;51.412;5.432;2023-03-23T05:25:06;100104.88;;;10.85;100.00
74065;BME280;62421;51.412;5.432;2023-03-23T05:27:34;100091.72;;;10.71;100.00
74065;BME280;62421;51.412;5.432;2023-03-23T05:30:00;100099.69;;;10.61;100.00
74065;BME280;62421;51.412;5.432;2023-03-23T05:32:27;100103.84;;;10.54;100.00
74065;BME280;62421;51.412;5.432;2023-03-23T05:34:58;100115.94;;;10.48;100.00
74065;BME280;62421;51.412;5.432;2023-03-23T05:37:24;100114.47;;;10.44;100.00
74065;BME280;62421;51.412;5.432;2023-03-23T05:39:51;100123.03;;;10.38;100.00
74065;BME280;62421;51.412;5.432;2023-03-23T05:42:19;100117.19;;;10.33;100.00
74065;BME280;62421;51.412;5.432;2023-03-23T05:44:45;100109.44;;;10.28;100.00
74065;BME280;62421;51.412;5.432;2023-03-23T05:47:11;100116.81;;;10.26;100.00
74065;BME280;62421;51.412;5.432;2023-03-23T05:49:37;100127.66;;;10.24;100.00
74065;BME280;62421;51.412;5.432;2023-03-23T05:52:03;100124.34;;;10.21;100.00
74065;BME280;62421;51.412;5.432;2023-03-23T05:54:28;100118.25;;;10.19;100.00
74065;BME280;62421;51.412;5.432;2023-03-23T05:56:54;100114.97;;;10.15;100.00
74065;BME280;62421;51.412;5.432;2023-03-23T05:59:19;100117.88;;;10.12;100.00
74065;BME280;62421;51.412;5.432;2023-03-23T06:01:44;100117.03;;;10.12;100.00
74065;BME280;62421;51.412;5.432;2023-03-23T06:04:10;100109.09;;;10.10;100.00
74065;BME280;62421;51.412;5.432;2023-03-23T06:06:36;100107.28;;;10.11;100.00
74065;BME280;62421;51.412;5.432;2023-03-23T06:09:02;100113.38;;;10.13;100.00
74065;BME280;62421;51.412;5.432;2023-03-23T06:11:28;100112.28;;;10.15;100.00
74065;BME280;62421;51.412;5.432;2023-03-23T06:13:54;100115.44;;;10.20;100.00
74065;BME280;62421;51.412;5.432;2023-03-23T06:16:19;100119.59;;;10.24;100.00
74065;BME280;62421;51.412;5.432;2023-03-23T06:18:45;100122.78;;;10.30;100.00
74065;BME280;62421;51.412;5.432;2023-03-23T06:21:12;100133.28;;;10.33;100.00
74065;BME280;62421;51.412;5.432;2023-03-23T06:23:38;100128.66;;;10.35;100.00
74065;BME280;62421;51.412;5.432;2023-03-23T06:26:06;100131.81;;;10.40;100.00
74065;BME280;62421;51.412;5.432;2023-03-23T06:28:33;100144.63;;;10.48;100.00
74065;BME280;62421;51.412;5.432;2023-03-23T06:31:03;100143.53;;;10.50;100.00
74065;BME280;62421;51.412;5.432;2023-03-23T06:33:35;100139.59;;;10.54;100.00
74065;BME280;62421;51.412;5.432;2023-03-23T06:36:02;100140.34;;;10.56;100.00
74065;BME280;62421;51.412;5.432;2023-03-23T06:38:27;100149.84;;;10.60;100.00
74065;BME280;62421;51.412;5.432;2023-03-23T06:40:53;100146.06;;;10.63;100.00
74065;BME280;62421;51.412;5.432;2023-03-23T06:43:19;100158.25;;;10.67;100.00
74065;BME280;62421;51.412;5.432;2023-03-23T06:45:45;100167.78;;;10.71;100.00
74065;BME280;62421;51.412;5.432;2023-03-23T06:48:11;100155.06;;;10.73;100.00
74065;BME280;62421;51.412;5.432;2023-03-23T06:50:37;100173.63;;;10.76;100.00
74065;BME280;62421;51.412;5.432;2023-03-23T06:53:02;100178.72;;;10.79;100.00
74065;BME280;62421;51.412;5.432;2023-03-23T06:55:28;100174.06;;;10.81;100.00
74065;BME280;62421;51.412;5.432;2023-03-23T06:57:53;100178.97;;;10.76;100.00
74065;BME280;62421;51.412;5.432;2023-03-23T07:00:19;100170.19;;;10.74;100.00
74065;BME280;62421;51.412;5.432;2023-03-23T07:02:44;100164.09;;;10.72;100.00
74065;BME280;62421;51.412;5.432;2023-03-23T07:05:11;100168.63;;;10.72;100.00
74065;BME280;62421;51.412;5.432;2023-03-23T07:07:38;100164.09;;;10.72;100.00
74065;BME280;62421;51.412;5.432;2023-03-23T07:10:05;100164.22;;;10.71;100.00
74065;BME280;62421;51.412;5.432;2023-03-23T07:12:31;100176.78;;;10.70;100.00
74065;BME280;62421;51.412;5.432;2023-03-23T07:14:58;100175.94;;;10.70;100.00
74065;BME280;62421;51.412;5.432;2023-03-23T07:17:23;100184.97;;;10.69;100.00
74065;BME280;62421;51.412;5.432;2023-03-23T07:19:50;100189.59;;;10.66;100.00
74065;BME280;62421;51.412;5.432;2023-03-23T07:22:15;100191.56;;;10.64;100.00
74065;BME280;62421;51.412;5.432;2023-03-23T07:24:41;100190.81;;;10.62;100.00
74065;BME280;62421;51.412;5.432;2023-03-23T07:27:07;100193.66;;;10.61;100.00
74065;BME280;62421;51.412;5.432;2023-03-23T07:29:32;100184.03;;;10.58;100.00
74065;BME280;62421;51.412;5.432;2023-03-23T07:32:01;100179.00;;;10.54;100.00
74065;BME280;62421;51.412;5.432;2023-03-23T07:34:26;100179.53;;;10.48;100.00
74065;BME280;62421;51.412;5.432;2023-03-23T07:36:52;100180.97;;;10.40;100.00
74065;BME280;62421;51.412;5.432;2023-03-23T07:39:17;100211.13;;;10.33;100.00
74065;BME280;62421;51.412;5.432;2023-03-23T07:41:43;100273.06;;;10.30;100.00
74065;BME280;62421;51.412;5.432;2023-03-23T07:44:08;100239.22;;;10.16;100.00
74065;BME280;62421;51.412;5.432;2023-03-23T07:46:33;100246.06;;;9.73;100.00
74065;BME280;62421;51.412;5.432;2023-03-23T07:48:59;100243.13;;;9.41;100.00
74065;BME280;62421;51.412;5.432;2023-03-23T07:51:25;100237.09;;;9.26;100.00
74065;BME280;62421;51.412;5.432;2023-03-23T07:53:50;100234.75;;;9.21;100.00
74065;BME280;62421;51.412;5.432;2023-03-23T07:56:17;100237.53;;;9.20;100.00
74065;BME280;62421;51.412;5.432;2023-03-23T07:58:47;100236.59;;;9.21;100.00
74065;BME280;62421;51.412;5.432;2023-03-23T08:01:12;100248.25;;;9.20;100.00
74065;BME280;62421;51.412;5.432;2023-03-23T08:03:38;100253.84;;;9.17;100.00
74065;BME280;62421;51.412;5.432;2023-03-23T08:06:04;100263.28;;;9.10;100.00
74065;BME280;62421;51.412;5.432;2023-03-23T08:08:31;100266.22;;;9.07;100.00
74065;BME280;62421;51.412;5.432;2023-03-23T08:10:57;100261.84;;;9.06;100.00
74065;BME280;62421;51.412;5.432;2023-03-23T08:13:23;100274.34;;;9.05;100.00
74065;BME280;62421;51.412;5.432;2023-03-23T08:15:48;100280.78;;;9.02;100.00
74065;BME280;62421;51.412;5.432;2023-03-23T08:18:15;100292.47;;;9.01;100.00
74065;BME280;62421;51.412;5.432;2023-03-23T08:20:40;100303.41;;;8.98;100.00
74065;BME280;62421;51.412;5.432;2023-03-23T08:23:06;100296.22;;;8.99;100.00
74065;BME280;62421;51.412;5.432;2023-03-23T08:25:33;100303.19;;;9.01;100.00
74065;BME280;62421;51.412;5.432;2023-03-23T08:27:59;100311.50;;;9.10;100.00
74065;BME280;62421;51.412;5.432;2023-03-23T08:30:27;100309.13;;;9.18;100.00
74065;BME280;62421;51.412;5.432;2023-03-23T08:32:57;100293.69;;;9.21;100.00
74065;BME280;62421;51.412;5.432;2023-03-23T08:35:24;100292.41;;;9.27;100.00
74065;BME280;62421;51.412;5.432;2023-03-23T08:37:49;100299.22;;;9.31;100.00
74065;BME280;62421;51.412;5.432;2023-03-23T08:40:21;100287.09;;;9.38;100.00
74065;BME280;62421;51.412;5.432;2023-03-23T08:42:48;100291.66;;;9.49;100.00
74065;BME280;62421;51.412;5.432;2023-03-23T08:45:19;100300.22;;;9.54;100.00
74065;BME280;62421;51.412;5.432;2023-03-23T08:47:47;100311.66;;;9.56;100.00
74065;BME280;62421;51.412;5.432;2023-03-23T08:50:19;100306.84;;;9.61;100.00
74065;BME280;62421;51.412;5.432;2023-03-23T08:52:45;100293.31;;;9.63;100.00
74065;BME280;62421;51.412;5.432;2023-03-23T08:55:11;100284.16;;;9.66;100.00
74065;BME280;62421;51.412;5.432;2023-03-23T08:57:37;100290.28;;;9.68;100.00
74065;BME280;62421;51.412;5.432;2023-03-23T09:00:05;100287.59;;;9.68;100.00
74065;BME280;62421;51.412;5.432;2023-03-23T09:02:43;100293.34;;;9.74;100.00
74065;BME280;62421;51.412;5.432;2023-03-23T09:05:09;100302.41;;;9.84;100.00
74065;BME280;62421;51.412;5.432;2023-03-23T09:07:39;100306.00;;;9.96;100.00
74065;BME280;62421;51.412;5.432;2023-03-23T09:10:05;100311.97;;;10.00;100.00
74065;BME280;62421;51.412;5.432;2023-03-23T09:12:31;100314.16;;;9.95;100.00
74065;BME280;62421;51.412;5.432;2023-03-23T09:14:57;100320.44;;;9.82;100.00
74065;BME280;62421;51.412;5.432;2023-03-23T09:17:22;100310.66;;;9.70;100.00
74065;BME280;62421;51.412;5.432;2023-03-23T09:19:47;100306.94;;;9.60;100.00
74065;BME280;62421;51.412;5.432;2023-03-23T09:22:13;100317.44;;;9.63;100.00
74065;BME280;62421;51.412;5.432;2023-03-23T09:24:40;100305.75;;;9.64;100.00
74065;BME280;62421;51.412;5.432;2023-03-23T09:27:06;100303.81;;;9.66;100.00
74065;BME280;62421;51.412;5.432;2023-03-23T09:29:31;100305.50;;;9.67;100.00
74065;BME280;62421;51.412;5.432;2023-03-23T09:31:56;100289.44;;;9.67;100.00
74065;BME280;62421;51.412;5.432;2023-03-23T09:34:23;100301.16;;;9.77;100.00
74065;BME280;62421;51.412;5.432;2023-03-23T09:36:49;100303.69;;;9.92;100.00
74065;BME280;62421;51.412;5.432;2023-03-23T09:39:14;100309.81;;;10.05;100.00
74065;BME280;62421;51.412;5.432;2023-03-23T09:42:11;100309.81;;;10.05;100.00
74065;BME280;62421;51.412;5.432;2023-03-23T09:48:00;100320.06;;;10.47;100.00
74065;BME280;62421;51.412;5.432;2023-03-23T09:50:32;100312.63;;;10.61;100.00
74065;BME280;62421;51.412;5.432;2023-03-23T09:53:20;100316.41;;;10.70;100.00
74065;BME280;62421;51.412;5.432;2023-03-23T09:55:46;100300.41;;;10.69;100.00
74065;BME280;62421;51.412;5.432;2023-03-23T09:58:23;100303.84;;;10.59;100.00
74065;BME280;62421;51.412;5.432;2023-03-23T10:03:39;100310.69;;;10.28;100.00
74065;BME280;62421;51.412;5.432;2023-03-23T10:06:09;100315.19;;;10.16;100.00
74065;BME280;62421;51.412;5.432;2023-03-23T10:08:45;100313.16;;;10.20;100.00
74065;BME280;62421;51.412;5.432;2023-03-23T10:14:11;100327.47;;;10.32;100.00
74065;BME280;62421;51.412;5.432;2023-03-23T10:16:47;100315.88;;;10.31;100.00
74065;BME280;62421;51.412;5.432;2023-03-23T10:19:31;100319.41;;;10.32;100.00
74065;BME280;62421;51.412;5.432;2023-03-23T10:22:26;100328.31;;;10.32;100.00
74065;BME280;62421;51.412;5.432;2023-03-23T10:24:57;100329.69;;;10.38;100.00
74065;BME280;62421;51.412;5.432;2023-03-23T10:27:38;100329.09;;;10.45;100.00
74065;BME280;62421;51.412;5.432;2023-03-23T10:33:22;100330.69;;;10.71;100.00
74065;BME280;62421;51.412;5.432;2023-03-23T10:36:07;100334.63;;;10.89;100.00
74065;BME280;62421;51.412;5.432;2023-03-23T10:38:45;100330.72;;;10.93;100.00
74065;BME280;62421;51.412;5.432;2023-03-23T10:41:15;100324.34;;;11.28;100.00
74065;BME280;62421;51.412;5.432;2023-03-23T10:43:42;100329.03;;;11.58;100.00
74065;BME280;62421;51.412;5.432;2023-03-23T10:46:16;100318.53;;;11.87;100.00
74065;BME280;62421;51.412;5.432;2023-03-23T10:48:48;100309.59;;;11.98;100.00
74065;BME280;62421;51.412;5.432;2023-03-23T10:51:17;100310.44;;;11.99;100.00
74065;BME280;62421;51.412;5.432;2023-03-23T10:53:49;100312.75;;;12.03;100.00
74065;BME280;62421;51.412;5.432;2023-03-23T10:56:42;100310.50;;;12.08;100.00
74065;BME280;62421;51.412;5.432;2023-03-23T10:59:25;100309.28;;;12.13;100.00
74065;BME280;62421;51.412;5.432;2023-03-23T11:01:54;100321.56;;;12.26;100.00
74065;BME280;62421;51.412;5.432;2023-03-23T11:04:22;100313.13;;;12.41;100.00
74065;BME280;62421;51.412;5.432;2023-03-23T11:06:51;100309.34;;;12.43;100.00
74065;BME280;62421;51.412;5.432;2023-03-23T11:09:32;100306.97;;;12.50;100.00
74065;BME280;62421;51.412;5.432;2023-03-23T11:11:58;100323.13;;;12.50;99.33
74065;BME280;62421;51.412;5.432;2023-03-23T11:14:34;100317.78;;;12.60;100.00
74065;BME280;62421;51.412;5.432;2023-03-23T11:17:05;100324.63;;;12.64;97.33
74065;BME280;62421;51.412;5.432;2023-03-23T11:19:45;100326.16;;;12.57;96.28
74065;BME280;62421;51.412;5.432;2023-03-23T11:22:23;100325.56;;;12.53;99.01
74065;BME280;62421;51.412;5.432;2023-03-23T11:24:55;100328.97;;;12.55;98.28
74065;BME280;62421;51.412;5.432;2023-03-23T11:27:23;100326.16;;;12.57;97.92
74065;BME280;62421;51.412;5.432;2023-03-23T11:30:01;100328.94;;;12.76;99.45
74065;BME280;62421;51.412;5.432;2023-03-23T11:32:34;100330.38;;;13.11;96.00
74065;BME280;62421;51.412;5.432;2023-03-23T11:35:03;100343.09;;;13.30;96.02
74065;BME280;62421;51.412;5.432;2023-03-23T11:37:35;100339.16;;;13.44;95.48
74065;BME280;62421;51.412;5.432;2023-03-23T11:42:44;100332.19;;;13.31;94.80
74065;BME280;62421;51.412;5.432;2023-03-23T11:45:20;100324.34;;;13.28;94.34
74065;BME280;62421;51.412;5.432;2023-03-23T11:50:52;100337.38;;;13.23;93.52
74065;BME280;62421;51.412;5.432;2023-03-23T11:58:53;100323.88;;;13.93;89.28
74065;BME280;62421;51.412;5.432;2023-03-23T12:13:25;100299.06;;;14.66;88.92
74065;BME280;62421;51.412;5.432;2023-03-23T12:18:29;100309.28;;;14.72;85.12
74065;BME280;62421;51.412;5.432;2023-03-23T12:20:58;100313.59;;;14.65;84.82
74065;BME280;62421;51.412;5.432;2023-03-23T12:23:35;100311.56;;;14.67;86.14
74065;BME280;62421;51.412;5.432;2023-03-23T12:33:58;100283.50;;;14.21;87.51
74065;BME280;62421;51.412;5.432;2023-03-23T12:36:39;100289.63;;;14.23;88.04
74065;BME280;62421;51.412;5.432;2023-03-23T12:45:12;100279.59;;;15.00;87.68
74065;BME280;62421;51.412;5.432;2023-03-23T12:47:49;100278.94;;;15.15;84.14
74065;BME280;62421;51.412;5.432;2023-03-23T12:50:23;100275.41;;;15.33;81.97
74065;BME280;62421;51.412;5.432;2023-03-23T12:53:13;100263.13;;;15.39;82.99
74065;BME280;62421;51.412;5.432;2023-03-23T12:55:46;100265.97;;;15.37;82.10
74065;BME280;62421;51.412;5.432;2023-03-23T12:58:19;100253.75;;;15.33;82.06
74065;BME280;62421;51.412;5.432;2023-03-23T13:01:04;100268.56;;;15.11;83.55
74065;BME280;62421;51.412;5.432;2023-03-23T13:03:51;100276.66;;;14.83;84.60
74065;BME280;62421;51.412;5.432;2023-03-23T13:08:59;100288.28;;;14.37;85.13
74065;BME280;62421;51.412;5.432;2023-03-23T13:11:32;100287.50;;;14.26;83.43
74065;BME280;62421;51.412;5.432;2023-03-23T13:14:27;100279.78;;;14.22;87.13
74065;BME280;62421;51.412;5.432;2023-03-23T13:22:29;100257.31;;;14.41;86.08
74065;BME280;62421;51.412;5.432;2023-03-23T13:25:01;100253.84;;;14.68;84.07
74065;BME280;62421;51.412;5.432;2023-03-23T13:27:29;100263.81;;;14.95;80.43
74065;BME280;62421;51.412;5.432;2023-03-23T13:29:58;100259.00;;;15.17;81.36
74065;BME280;62421;51.412;5.432;2023-03-23T13:32:33;100251.91;;;15.33;83.05
74065;BME280;62421;51.412;5.432;2023-03-23T13:35:02;100249.38;;;15.32;78.45
74065;BME280;62421;51.412;5.432;2023-03-23T13:37:29;100256.59;;;15.13;78.16
74065;BME280;62421;51.412;5.432;2023-03-23T13:42:28;100254.47;;;14.80;80.42
74065;BME280;62421;51.412;5.432;2023-03-23T13:45:24;100251.38;;;14.74;82.26
74065;BME280;62421;51.412;5.432;2023-03-23T13:53:45;100253.19;;;14.37;84.10
74065;BME280;62421;51.412;5.432;2023-03-23T13:56:21;100248.97;;;14.24;84.44
74065;BME280;62421;51.412;5.432;2023-03-23T13:59:15;100293.31;;;14.12;81.92
74065;BME280;62421;51.412;5.432;2023-03-23T14:01:42;100273.72;;;13.81;91.42
74065;BME280;62421;51.412;5.432;2023-03-23T14:04:31;100286.66;;;12.67;96.70
74065;BME280;62421;51.412;5.432;2023-03-23T14:07:09;100290.63;;;12.21;100.00
74065;BME280;62421;51.412;5.432;2023-03-23T14:09:41;100279.09;;;12.09;100.00
74065;BME280;62421;51.412;5.432;2023-03-23T14:12:26;100270.88;;;11.90;100.00
74065;BME280;62421;51.412;5.432;2023-03-23T14:14:58;100277.47;;;11.85;100.00
74065;BME280;62421;51.412;5.432;2023-03-23T14:17:33;100264.75;;;11.87;100.00
74065;BME280;62421;51.412;5.432;2023-03-23T14:20:00;100275.28;;;11.79;100.00